createdAt,value
2018-09-12T00:00:31.932Z,99089.59
2018-09-12T00:02:59.651Z,99085.75
2018-09-12T00:05:27.343Z,99089.59
2018-09-12T00:07:55.081Z,99074.99
2018-09-12T00:10:22.805Z,99082.48
2018-09-12T00:12:50.515Z,99074.88
2018-09-12T00:15:18.255Z,99062.09
2018-09-12T00:17:45.966Z,99059.30
2018-09-12T00:20:13.683Z,99056.64
2018-09-12T00:22:41.447Z,99053.65
2018-09-12T00:25:09.160Z,99047.59
2018-09-12T00:27:36.870Z,99046.78
2018-09-12T00:30:04.788Z,99049.55
2018-09-12T00:32:32.511Z,99047.36
2018-09-12T00:35:00.368Z,99048.83
2018-09-12T00:37:28.065Z,99043.86
2018-09-12T00:39:55.769Z,99043.39
2018-09-12T00:42:23.497Z,99033.12
2018-09-12T00:44:51.204Z,99032.89
2018-09-12T00:47:18.948Z,99024.59
2018-09-12T00:49:46.671Z,99023.00
2018-09-12T00:52:14.456Z,99020.72
2018-09-12T00:54:42.146Z,99020.22
2018-09-12T00:57:09.838Z,99013.96
2018-09-12T00:59:37.543Z,99008.66
2018-09-12T01:02:05.274Z,99003.22
2018-09-12T01:04:32.971Z,99003.96
2018-09-12T01:07:00.724Z,98994.89
2018-09-12T01:09:28.411Z,98993.56
2018-09-12T01:11:56.138Z,98988.50
2018-09-12T01:14:28.326Z,98984.77
2018-09-12T01:16:56.024Z,98981.16
2018-09-12T01:19:23.848Z,98977.42
2018-09-12T01:21:51.767Z,98975.86
2018-09-12T01:24:19.497Z,98970.80
2018-09-12T01:26:47.210Z,98979.23
2018-09-12T01:29:14.907Z,98974.78
2018-09-12T01:31:42.833Z,98966.45
2018-09-12T01:34:10.633Z,98967.05
2018-09-12T01:36:38.640Z,98967.66
2018-09-12T01:39:07.555Z,98955.35
2018-09-12T01:41:35.256Z,98961.51
2018-09-12T01:44:02.971Z,98955.45
2018-09-12T01:46:30.688Z,98947.16
2018-09-12T01:48:58.396Z,98950.06
2018-09-12T01:51:26.108Z,98944.38
2018-09-12T01:53:54.006Z,98946.56
2018-09-12T01:56:21.828Z,98945.10
2018-09-12T01:58:49.758Z,98943.67
2018-09-12T02:01:17.574Z,98947.28
2018-09-12T02:03:45.550Z,98942.45
2018-09-12T02:06:13.359Z,98946.56
2018-09-12T02:08:41.217Z,98945.23
2018-09-12T02:11:09.076Z,98943.17
2018-09-12T02:13:36.944Z,98935.83
2018-09-12T02:16:04.801Z,98935.45
2018-09-12T02:18:32.678Z,98933.42
2018-09-12T02:21:00.600Z,98927.13
2018-09-12T02:23:28.460Z,98934.13
2018-09-12T02:25:56.295Z,98922.07
2018-09-12T02:28:24.180Z,98925.45
2018-09-12T02:30:52.301Z,98926.30
2018-09-12T02:33:20.189Z,98921.84
2018-09-12T02:35:53.412Z,98924.02
2018-09-12T02:38:21.212Z,98914.98
2018-09-12T02:40:49.190Z,98924.59
2018-09-12T02:43:17.032Z,98914.73
2018-09-12T02:45:44.904Z,98910.14
2018-09-12T02:48:12.749Z,98908.21
2018-09-12T02:50:40.602Z,98910.86
2018-09-12T02:53:08.433Z,98900.02
2018-09-12T02:55:36.301Z,98907.61
2018-09-12T02:58:04.313Z,98895.67
2018-09-12T03:00:32.260Z,98891.94
2018-09-12T03:03:00.110Z,98896.91
2018-09-12T03:05:27.981Z,98888.20
2018-09-12T03:07:55.899Z,98884.47
2018-09-12T03:10:23.766Z,98891.10
2018-09-12T03:12:51.612Z,98885.43
2018-09-12T03:15:19.530Z,98880.13
2018-09-12T03:17:47.407Z,98881.11
2018-09-12T03:20:15.201Z,98878.94
2018-09-12T03:22:43.010Z,98870.51
2018-09-12T03:25:10.849Z,98867.11
2018-09-12T03:27:38.734Z,98869.66
2018-09-12T03:30:07.011Z,98864.47
2018-09-12T03:32:34.889Z,98863.75
2018-09-12T03:35:02.738Z,98860.98
2018-09-12T03:37:30.562Z,98853.39
2018-09-12T03:39:58.400Z,98850.61
2018-09-12T03:42:26.239Z,98845.30
2018-09-12T03:44:54.121Z,98847.25
2018-09-12T03:47:21.936Z,98840.39
2018-09-12T03:49:49.774Z,98836.18
2018-09-12T03:52:17.652Z,98830.14
2018-09-12T03:54:45.437Z,98832.08
2018-09-12T03:57:13.233Z,98834.35
2018-09-12T03:59:41.112Z,98831.00
2018-09-12T04:02:08.946Z,98822.78
2018-09-12T04:04:36.730Z,98820.13
2018-09-12T04:07:04.734Z,98813.30
2018-09-12T04:09:32.551Z,98816.66
2018-09-12T04:12:00.385Z,98806.42
2018-09-12T04:14:28.217Z,98814.71
2018-09-12T04:16:56.096Z,98809.41
2018-09-12T04:19:23.913Z,98803.53
2018-09-12T04:21:51.811Z,98804.61
2018-09-12T04:24:19.674Z,98808.95
2018-09-12T04:26:47.699Z,98810.98
2018-09-12T04:29:15.536Z,98806.39
2018-09-12T04:31:43.338Z,98809.41
2018-09-12T04:34:11.138Z,98806.66
2018-09-12T04:36:38.932Z,98811.20
2018-09-12T04:39:08.938Z,98804.22
2018-09-12T04:41:37.012Z,98798.81
2018-09-12T04:44:04.857Z,98803.50
2018-09-12T04:46:33.625Z,98800.23
2018-09-12T04:49:01.598Z,98802.05
2018-09-12T04:51:29.510Z,98799.84
2018-09-12T04:54:04.463Z,98796.73
2018-09-12T04:56:32.329Z,98796.73
2018-09-12T04:59:00.174Z,98797.06
2018-09-12T05:01:28.042Z,98798.88
2018-09-12T05:03:55.897Z,98802.83
2018-09-12T05:06:23.758Z,98798.09
2018-09-12T05:08:51.601Z,98794.97
2018-09-12T05:11:20.273Z,98797.03
2018-09-12T05:13:48.227Z,98798.69
2018-09-12T05:16:16.070Z,98798.10
2018-09-12T05:18:43.922Z,98802.67
2018-09-12T05:21:11.713Z,98790.59
2018-09-12T05:23:39.585Z,98794.31
2018-09-12T05:26:07.483Z,98781.53
2018-09-12T05:28:35.387Z,98790.34
2018-09-12T05:31:03.241Z,98788.05
2018-09-12T05:33:31.133Z,98786.36
2018-09-12T05:35:58.952Z,98789.01
2018-09-12T05:38:26.780Z,98785.39
2018-09-12T05:40:54.632Z,98786.83
2018-09-12T05:43:22.495Z,98786.25
2018-09-12T05:45:50.285Z,98784.66
2018-09-12T05:48:18.118Z,98784.88
2018-09-12T05:50:46.013Z,98787.28
2018-09-12T05:53:13.955Z,98781.27
2018-09-12T05:55:41.918Z,98784.15
2018-09-12T05:58:09.818Z,98786.91
2018-09-12T06:00:37.729Z,98782.12
2018-09-12T06:03:05.609Z,98779.47
2018-09-12T06:05:33.443Z,98777.03
2018-09-12T06:08:01.451Z,98778.62
2018-09-12T06:10:29.307Z,98775.48
2018-09-12T06:12:57.228Z,98775.97
2018-09-12T06:15:25.107Z,98773.64
2018-09-12T06:17:52.995Z,98784.77
2018-09-12T06:20:20.870Z,98781.27
2018-09-12T06:22:48.690Z,98780.53
2018-09-12T06:25:16.589Z,98779.17
2018-09-12T06:27:44.445Z,98783.27
2018-09-12T06:30:12.286Z,98778.77
2018-09-12T06:32:40.176Z,98780.31
2018-09-12T06:35:08.090Z,98783.08
2018-09-12T06:37:35.951Z,98784.62
2018-09-12T06:40:03.841Z,98784.25
2018-09-12T06:42:31.713Z,98774.55
2018-09-12T06:44:59.579Z,98778.11
2018-09-12T06:47:27.468Z,98776.28
2018-09-12T06:49:55.288Z,98772.52
2018-09-12T06:52:23.198Z,98780.58
2018-09-12T06:54:51.526Z,98779.46
2018-09-12T06:57:19.452Z,98778.45
2018-09-12T06:59:47.276Z,98778.91
2018-09-12T07:02:15.099Z,98778.16
2018-09-12T07:04:42.934Z,98780.67
2018-09-12T07:07:10.800Z,98776.24
2018-09-12T07:09:38.657Z,98772.66
2018-09-12T07:12:06.553Z,98786.11
2018-09-12T07:14:34.434Z,98776.89
2018-09-12T07:17:02.337Z,98775.86
2018-09-12T07:19:30.234Z,98779.09
2018-09-12T07:21:58.070Z,98773.74
2018-09-12T07:24:25.980Z,98775.86
2018-09-12T07:26:53.829Z,98773.34
2018-09-12T07:29:21.787Z,98775.03
2018-09-12T07:31:49.594Z,98775.43
2018-09-12T07:34:17.420Z,98776.91
2018-09-12T07:36:45.297Z,98777.69
2018-09-12T07:39:13.875Z,98779.20
2018-09-12T07:41:41.980Z,98788.80
2018-09-12T07:44:09.830Z,98783.48
2018-09-12T07:46:37.692Z,98785.62
2018-09-12T07:49:06.423Z,98781.02
2018-09-12T07:51:34.298Z,98772.84
2018-09-12T07:54:02.133Z,98782.21
2018-09-12T07:56:30.117Z,98776.08
2018-09-12T07:58:57.966Z,98778.38
2018-09-12T08:01:25.867Z,98779.55
2018-09-12T08:03:53.654Z,98772.89
2018-09-12T08:06:21.408Z,98777.93
2018-09-12T08:08:49.296Z,98779.75
2018-09-12T08:11:17.014Z,98773.81
2018-09-12T08:13:44.724Z,98779.06
2018-09-12T08:16:12.471Z,98778.13
2018-09-12T08:18:40.546Z,98777.04
2018-09-12T08:21:09.391Z,98775.83
2018-09-12T08:23:37.108Z,98782.20
2018-09-12T08:26:04.881Z,98775.70
2018-09-12T08:28:32.630Z,98779.05
2018-09-12T08:31:00.336Z,98775.70
2018-09-12T08:33:28.071Z,98777.23
2018-09-12T08:35:56.440Z,98784.51
2018-09-12T08:38:24.209Z,98786.84
2018-09-12T08:40:52.003Z,98774.86
2018-09-12T08:43:19.728Z,98782.27
2018-09-12T08:45:47.449Z,98784.25
2018-09-12T08:48:15.178Z,98788.00
2018-09-12T08:50:42.992Z,98784.45
2018-09-12T08:53:10.741Z,98780.95
2018-09-12T08:55:38.512Z,98782.69
2018-09-12T08:58:06.268Z,98787.04
2018-09-12T09:00:34.577Z,98779.81
2018-09-12T09:03:03.385Z,98789.85
2018-09-12T09:05:31.130Z,98792.15
2018-09-12T09:07:58.903Z,98789.36
2018-09-12T09:10:26.703Z,98789.56
2018-09-12T09:12:55.307Z,98795.58
2018-09-12T09:15:23.132Z,98796.16
2018-09-12T09:17:50.864Z,98794.25
2018-09-12T09:20:18.631Z,98794.13
2018-09-12T09:22:46.401Z,98797.67
2018-09-12T09:25:14.160Z,98799.01
2018-09-12T09:27:42.504Z,98790.55
2018-09-12T09:30:10.236Z,98795.44
2018-09-12T09:32:38.269Z,98797.98
2018-09-12T09:35:06.435Z,98794.34
2018-09-12T09:37:34.122Z,98795.11
2018-09-12T09:40:01.896Z,98791.13
2018-09-12T09:42:30.261Z,98793.42
2018-09-12T09:44:58.280Z,98795.03
2018-09-12T09:47:26.031Z,98796.00
2018-09-12T09:49:55.880Z,98798.67
2018-09-12T09:52:24.577Z,98803.35
2018-09-12T09:54:52.368Z,98797.74
2018-09-12T09:57:20.267Z,98794.59
2018-09-12T09:59:48.076Z,98793.55
2018-09-12T10:02:19.360Z,98795.92
2018-09-12T10:05:51.481Z,98793.98
2018-09-12T10:08:25.691Z,98798.95
2018-09-12T10:10:53.395Z,98797.49
2018-09-12T10:13:21.169Z,98802.53
2018-09-12T10:15:48.859Z,98810.16
2018-09-12T10:18:16.551Z,98808.34
2018-09-12T10:20:44.265Z,98807.57
2018-09-12T10:23:11.941Z,98802.38
2018-09-12T10:25:39.656Z,98797.83
2018-09-12T10:28:07.409Z,98808.70
2018-09-12T10:30:35.113Z,98811.72
2018-09-12T10:33:02.823Z,98804.78
2018-09-12T10:35:30.560Z,98811.00
2018-09-12T10:37:58.245Z,98812.34
2018-09-12T10:40:25.974Z,98809.75
2018-09-12T10:42:53.725Z,98817.82
2018-09-12T10:45:21.484Z,98811.70
2018-09-12T10:47:49.177Z,98805.40
2018-09-12T10:50:16.876Z,98811.09
2018-09-12T10:52:44.611Z,98810.72
2018-09-12T10:55:12.313Z,98808.83
2018-09-12T10:57:40.025Z,98809.83
2018-09-12T11:00:08.020Z,98816.20
2018-09-12T11:02:35.767Z,98816.91
2018-09-12T11:05:03.640Z,98817.30
2018-09-12T11:07:31.408Z,98822.14
2018-09-12T11:09:59.132Z,98817.88
2018-09-12T11:12:26.857Z,98818.36
2018-09-12T11:14:54.593Z,98813.39
2018-09-12T11:17:22.355Z,98817.47
2018-09-12T11:19:50.095Z,98818.80
2018-09-12T11:22:17.792Z,98823.36
2018-09-12T11:24:45.694Z,98824.05
2018-09-12T11:27:13.449Z,98827.63
2018-09-12T11:29:41.146Z,98828.80
2018-09-12T11:32:08.852Z,98830.78
2018-09-12T11:34:36.620Z,98823.15
2018-09-12T11:37:04.333Z,98826.63
2018-09-12T11:39:32.055Z,98826.30
2018-09-12T11:42:03.640Z,98826.86
2018-09-12T11:44:36.562Z,98822.30
2018-09-12T11:47:04.296Z,98823.69
2018-09-12T11:49:34.304Z,98830.38
2018-09-12T11:52:02.983Z,98829.16
2018-09-12T11:54:34.588Z,98823.42
2018-09-12T11:57:02.316Z,98822.36
2018-09-12T11:59:30.029Z,98820.72
2018-09-12T12:01:57.810Z,98820.42
2018-09-12T12:04:25.595Z,98818.81
2018-09-12T12:06:53.528Z,98818.59
2018-09-12T12:09:21.240Z,98816.91
2018-09-12T12:11:48.936Z,98821.55
2018-09-12T12:14:16.668Z,98823.80
2018-09-12T12:16:44.452Z,98819.46
2018-09-12T12:19:12.112Z,98827.05
2018-09-12T12:21:39.849Z,98823.91
2018-09-12T12:24:07.606Z,98830.28
2018-09-12T12:26:35.383Z,98833.06
2018-09-12T12:29:03.112Z,98829.20
2018-09-12T12:31:30.852Z,98833.20
2018-09-12T12:33:58.600Z,98831.40
2018-09-12T12:36:26.364Z,98828.59
2018-09-12T12:38:54.052Z,98833.02
2018-09-12T12:41:21.836Z,98826.20
2018-09-12T12:43:49.537Z,98826.41
2018-09-12T12:46:17.258Z,98827.89
2018-09-12T12:48:44.986Z,98822.27
2018-09-12T12:51:12.716Z,98826.45
2018-09-12T12:53:40.480Z,98827.75
2018-09-12T12:56:08.176Z,98825.97
2018-09-12T12:58:35.892Z,98831.19
2018-09-12T13:01:03.612Z,98830.62
2018-09-12T13:03:31.309Z,98831.75
2018-09-12T13:05:59.006Z,98834.95
2018-09-12T13:08:26.700Z,98838.67
2018-09-12T13:10:54.444Z,98840.52
2018-09-12T13:13:22.149Z,98835.23
2018-09-12T13:15:49.878Z,98835.87
2018-09-12T13:18:17.632Z,98830.47
2018-09-12T13:20:45.391Z,98837.48
2018-09-12T13:23:13.140Z,98833.63
2018-09-12T13:25:40.913Z,98836.66
2018-09-12T13:28:08.624Z,98835.97
2018-09-12T13:30:36.352Z,98832.26
2018-09-12T13:33:04.113Z,98845.42
2018-09-12T13:35:31.844Z,98833.30
2018-09-12T13:37:59.572Z,98833.63
2018-09-12T13:40:27.258Z,98836.53
2018-09-12T13:42:54.990Z,98840.45
2018-09-12T13:45:22.684Z,98840.38
2018-09-12T13:47:50.356Z,98837.79
2018-09-12T13:50:18.112Z,98833.43
2018-09-12T13:52:46.677Z,98842.39
2018-09-12T13:55:14.629Z,98842.97
2018-09-12T13:57:42.523Z,98844.30
2018-09-12T14:00:10.305Z,98837.16
2018-09-12T14:02:37.993Z,98839.66
2018-09-12T14:05:05.828Z,98846.20
2018-09-12T14:07:34.347Z,98843.89
2018-09-12T14:10:02.096Z,98846.11
2018-09-12T14:12:29.836Z,98845.62
2018-09-12T14:14:57.559Z,98846.11
2018-09-12T14:17:25.347Z,98845.58
2018-09-12T14:19:53.051Z,98840.93
2018-09-12T14:22:20.756Z,98839.43
2018-09-12T14:24:48.468Z,98837.68
2018-09-12T14:27:16.149Z,98841.38
2018-09-12T14:29:43.907Z,98840.44
2018-09-12T14:32:11.688Z,98848.09
2018-09-12T14:34:39.436Z,98850.66
2018-09-12T14:37:07.303Z,98844.77
2018-09-12T14:39:35.127Z,98844.56
2018-09-12T14:42:02.870Z,98847.22
2018-09-12T14:44:30.584Z,98845.64
2018-09-12T14:46:58.324Z,98838.18
2018-09-12T14:49:26.052Z,98837.33
2018-09-12T14:51:53.768Z,98838.30
2018-09-12T14:54:21.471Z,98835.34
2018-09-12T14:56:49.179Z,98836.30
2018-09-12T14:59:17.086Z,98840.56
2018-09-12T15:01:44.814Z,98834.28
2018-09-12T15:04:12.525Z,98842.44
2018-09-12T15:06:40.448Z,98837.75
2018-09-12T15:09:09.578Z,98843.88
2018-09-12T15:11:37.370Z,98842.83
2018-09-12T15:14:05.267Z,98839.10
2018-09-12T15:16:32.996Z,98842.24
2018-09-12T15:19:00.973Z,98837.56
2018-09-12T15:21:28.703Z,98836.55
2018-09-12T15:23:56.415Z,98848.84
2018-09-12T15:26:24.162Z,98845.17
2018-09-12T15:28:51.876Z,98840.46
2018-09-12T15:31:19.605Z,98843.55
2018-09-12T15:33:47.394Z,98841.52
2018-09-12T15:36:15.560Z,98844.28
2018-09-12T15:38:43.245Z,98850.13
2018-09-12T15:41:10.952Z,98850.50
2018-09-12T15:43:38.732Z,98853.90
2018-09-12T15:46:06.529Z,98836.53
2018-09-12T15:48:34.240Z,98857.05
2018-09-12T15:51:01.928Z,98857.45
2018-09-12T15:53:29.753Z,98853.80
2018-09-12T15:55:57.452Z,98849.73
2018-09-12T15:58:25.168Z,98858.67
2018-09-12T16:00:53.167Z,98851.33
2018-09-12T16:03:20.975Z,98853.88
2018-09-12T16:05:48.688Z,98859.44
2018-09-12T16:08:16.409Z,98853.20
2018-09-12T16:10:44.133Z,98868.39
2018-09-12T16:13:11.833Z,98859.02
2018-09-12T16:15:39.599Z,98857.50
2018-09-12T16:18:07.296Z,98864.02
2018-09-12T16:20:35.161Z,98866.08
2018-09-12T16:23:03.004Z,98867.03
2018-09-12T16:25:30.867Z,98871.41
2018-09-12T16:27:58.543Z,98867.42
2018-09-12T16:30:26.262Z,98871.03
2018-09-12T16:32:54.092Z,98867.08
2018-09-12T16:35:21.852Z,98874.69
2018-09-12T16:37:49.575Z,98871.31
2018-09-12T16:40:17.301Z,98881.09
2018-09-12T16:42:45.026Z,98882.92
2018-09-12T16:45:12.736Z,98885.31
2018-09-12T16:47:40.440Z,98884.70
2018-09-12T16:50:08.160Z,98887.97
2018-09-12T16:52:35.892Z,98893.38
2018-09-12T16:55:03.613Z,98889.55
2018-09-12T16:57:31.652Z,98891.22
2018-09-12T16:59:59.353Z,98896.53
2018-09-12T17:02:27.041Z,98897.34
2018-09-12T17:04:54.788Z,98899.16
2018-09-12T17:07:22.465Z,98899.36
2018-09-12T17:09:50.172Z,98900.78
2018-09-12T17:12:17.956Z,98900.92
2018-09-12T17:14:45.645Z,98902.48
2018-09-12T17:17:13.371Z,98905.95
2018-09-12T17:19:41.167Z,98907.13
2018-09-12T17:22:08.844Z,98910.39
2018-09-12T17:24:36.552Z,98913.28
2018-09-12T17:27:04.279Z,98910.25
2018-09-12T17:29:31.976Z,98916.27
2018-09-12T17:31:59.709Z,98915.30
2018-09-12T17:34:27.463Z,98915.88
2018-09-12T17:36:55.219Z,98920.70
2018-09-12T17:39:22.929Z,98918.52
2018-09-12T17:41:50.622Z,98920.55
2018-09-12T17:44:18.780Z,98932.09
2018-09-12T17:46:46.496Z,98927.39
2018-09-12T17:49:14.184Z,98928.72
2018-09-12T17:51:41.884Z,98925.22
2018-09-12T17:54:09.588Z,98930.37
2018-09-12T17:56:37.314Z,98932.16
2018-09-12T17:59:05.138Z,98931.20
2018-09-12T18:01:32.847Z,98928.88
2018-09-12T18:04:00.569Z,98928.16
2018-09-12T18:06:28.282Z,98931.98
2018-09-12T18:08:56.026Z,98931.98
2018-09-12T18:11:23.868Z,98932.22
2018-09-12T18:13:51.593Z,98928.20
2018-09-12T18:16:19.299Z,98929.50
2018-09-12T18:18:47.070Z,98931.05
2018-09-12T18:21:14.789Z,98927.69
2018-09-12T18:23:42.509Z,98927.06
2018-09-12T18:26:10.216Z,98935.70
2018-09-12T18:28:37.915Z,98930.88
2018-09-12T18:31:05.678Z,98946.38
2018-09-12T18:33:33.395Z,98937.34
2018-09-12T18:36:02.127Z,98940.59
2018-09-12T18:38:30.217Z,98941.53
2018-09-12T18:40:58.260Z,98942.85
2018-09-12T18:43:26.029Z,98946.45
2018-09-12T18:45:53.747Z,98943.08
2018-09-12T18:48:21.504Z,98946.32
2018-09-12T18:50:49.324Z,98947.36
2018-09-12T18:53:17.364Z,98952.40
2018-09-12T18:55:45.120Z,98945.06
2018-09-12T18:58:12.823Z,98949.25
2018-09-12T19:00:40.716Z,98947.65
2018-09-12T19:03:09.167Z,98950.52
2018-09-12T19:05:36.962Z,98950.89
2018-09-12T19:08:04.687Z,98951.84
2018-09-12T19:10:32.397Z,98958.58
2018-09-12T19:13:00.113Z,98953.85
2018-09-12T19:15:27.860Z,98961.53
2018-09-12T19:17:55.612Z,98960.20
2018-09-12T19:20:23.335Z,98961.66
2018-09-12T19:22:51.047Z,98966.95
2018-09-12T19:25:18.774Z,98961.66
2018-09-12T19:27:46.457Z,98964.30
2018-09-12T19:30:14.176Z,98962.98
2018-09-12T19:32:41.947Z,98963.92
2018-09-12T19:35:09.641Z,98967.13
2018-09-12T19:37:37.347Z,98969.43
2018-09-12T19:40:05.152Z,98964.02
2018-09-12T19:42:32.952Z,98967.25
2018-09-12T19:45:00.691Z,98971.09
2018-09-12T19:47:28.433Z,98965.55
2018-09-12T19:49:56.510Z,98971.78
2018-09-12T19:52:24.251Z,98973.96
2018-09-12T19:54:51.988Z,98976.73
2018-09-12T19:57:19.661Z,98978.30
2018-09-12T19:59:47.429Z,98976.13
2018-09-12T20:02:23.938Z,98978.77
2018-09-12T20:04:51.712Z,98980.95
2018-09-12T20:07:19.511Z,98978.77
2018-09-12T20:09:47.691Z,98981.89
2018-09-12T20:12:15.835Z,98981.55
2018-09-12T20:14:43.513Z,98986.33
2018-09-12T20:17:11.219Z,98987.77
2018-09-12T20:19:39.024Z,98983.81
2018-09-12T20:22:08.040Z,98992.69
2018-09-12T20:24:35.855Z,98990.42
2018-09-12T20:27:03.630Z,98998.44
2018-09-12T20:29:31.349Z,98997.97
2018-09-12T20:31:59.105Z,98990.63
2018-09-12T20:34:27.068Z,98997.72
2018-09-12T20:36:54.801Z,98997.24
2018-09-12T20:39:22.552Z,98996.86
2018-09-12T20:41:50.252Z,98995.66
2018-09-12T20:44:17.978Z,99008.13
2018-09-12T20:46:45.698Z,99008.97
2018-09-12T20:49:13.439Z,99010.42
2018-09-12T20:51:43.823Z,99007.48
2018-09-12T20:54:13.248Z,99012.77
2018-09-12T20:56:40.996Z,99008.46
2018-09-12T20:59:08.705Z,99021.55
2018-09-12T21:01:36.442Z,99021.30
2018-09-12T21:04:04.158Z,99023.21
2018-09-12T21:06:31.926Z,99029.44
2018-09-12T21:08:59.616Z,99029.44
2018-09-12T21:11:27.311Z,99036.30
2018-09-12T21:13:55.108Z,99036.77
2018-09-12T21:16:22.789Z,99039.07
2018-09-12T21:18:50.505Z,99046.03
2018-09-12T21:21:18.207Z,99041.71
2018-09-12T21:23:45.934Z,99044.83
2018-09-12T21:26:13.640Z,99046.62
2018-09-12T21:28:41.918Z,99045.30
2018-09-12T21:31:09.683Z,99049.64
2018-09-12T21:33:37.698Z,99054.64
2018-09-12T21:36:05.565Z,99052.97
2018-09-12T21:38:33.312Z,99058.34
2018-09-12T21:41:01.139Z,99057.61
2018-09-12T21:43:29.980Z,99066.02
2018-09-12T21:45:57.750Z,99070.83
2018-09-12T21:48:25.467Z,99070.83
2018-09-12T21:50:53.170Z,99074.29
2018-09-12T21:53:20.880Z,99070.06
2018-09-12T21:55:48.547Z,99073.56
2018-09-12T21:58:16.260Z,99072.62
2018-09-12T22:00:43.992Z,99080.63
2018-09-12T22:03:11.689Z,99078.11
2018-09-12T22:05:39.415Z,99086.04
2018-09-12T22:08:07.202Z,99083.40
2018-09-12T22:10:35.115Z,99089.53
2018-09-12T22:13:02.787Z,99092.18
2018-09-12T22:15:30.483Z,99090.01
2018-09-12T22:17:58.160Z,99091.59
2018-09-12T22:20:25.920Z,99093.84
2018-09-12T22:22:53.595Z,99096.14
2018-09-12T22:25:21.504Z,99094.70
2018-09-12T22:27:49.268Z,99094.82
2018-09-12T22:30:16.978Z,99103.77
2018-09-12T22:32:44.676Z,99108.20
2018-09-12T22:35:12.376Z,99107.86
2018-09-12T22:37:40.092Z,99110.38
2018-09-12T22:40:07.904Z,99110.12
2018-09-12T22:42:35.720Z,99114.47
2018-09-12T22:45:03.487Z,99117.58
2018-09-12T22:47:31.132Z,99116.73
2018-09-12T22:49:58.804Z,99120.22
2018-09-12T22:52:26.492Z,99114.29
2018-09-12T22:54:54.180Z,99124.27
2018-09-12T22:57:21.884Z,99134.02
2018-09-12T22:59:49.603Z,99131.84
2018-09-12T23:02:17.319Z,99130.14
2018-09-12T23:04:44.972Z,99131.84
2018-09-12T23:07:12.627Z,99135.89
2018-09-12T23:09:40.329Z,99144.09
2018-09-12T23:12:08.000Z,99139.31
2018-09-12T23:14:35.681Z,99147.70
2018-09-12T23:17:03.500Z,99148.55
2018-09-12T23:19:31.088Z,99144.09
2018-09-12T23:21:58.786Z,99156.56
2018-09-12T23:24:26.467Z,99157.89
2018-09-12T23:26:54.187Z,99167.98
2018-09-12T23:29:21.871Z,99163.64
2018-09-12T23:31:49.541Z,99169.39
2018-09-12T23:34:17.269Z,99169.87
2018-09-12T23:36:44.963Z,99163.47
2018-09-12T23:39:13.576Z,99167.92
2018-09-12T23:41:41.711Z,99175.85
2018-09-12T23:44:10.083Z,99171.51
2018-09-12T23:46:37.868Z,99177.26
2018-09-12T23:49:06.113Z,99175.55
2018-09-12T23:51:33.855Z,99183.39
2018-09-12T23:54:01.690Z,99179.63
2018-09-12T23:56:29.351Z,99182.36
2018-09-12T23:58:57.055Z,99190.76
